Terminal Aerodrome Forecast
Issued by NWS

Home | Current Version | Previous Version | Graphics & Text | Print | Product List | Glossary On
Versions: 1 2 3 4 5 6 7 8 9 10 11 12 13 14 15 16 17 18 19 20 21 22 23 24 25 26 27
000
FTUS45 KGGW 281700
TAFOLF
TAF
KOLF 281733Z 2818/2918 27013G19KT P6SM VCTS SCT080CB BKN200
     FM282000 28022G32KT P6SM VCTS SCT060CB BKN080
      TEMPO 2820/2823 VRB40G50KT 2SM TSRA OVC030CB
     FM290000 30027G35KT 5SM -SHRA BKN090
     FM290600 28015G25KT P6SM VCSH BKN030
     FM291200 28008KT P6SM FEW240=

USA.gov is the U.S. government's official web portal to all federal, state and local government web resources and services.